This is the latest recevied weather packets stored in our database for station/object LRAR. If no packets are shown the sender has not sent any weather packets the latest 10 day(s).
| Time | Temp. | Humidity | Pressure | Rain* | Wind** | Luminosity | Snow |
|---|---|---|---|---|---|---|---|
| 1777723426 | 18.89° C | 32% | 1021 hPa | - | - | - | - |
| 1777722516 | 18.89° C | 37% | 1021 hPa | - | - | - | - |
| 1777721618 | 18.89° C | 37% | 1021 hPa | - | - | - | - |
| 1777720718 | 20° C | 33% | 1021 hPa | - | - | - | - |
| 1777719818 | 20° C | 33% | 1021 hPa | - | - | - | - |
| 1777718918 | 18.89° C | 35% | 1022 hPa | - | - | - | - |
| 1777718019 | 18.89° C | 35% | 1022 hPa | - | - | - | - |
| 1777717115 | 18.89° C | 35% | 1022 hPa | - | - | - | - |
| 1777716218 | 18.89° C | 35% | 1022 hPa | - | - | - | - |
| 1777715315 | 17.78° C | 34% | 1023 hPa | - | - | - | - |
| 1777714499 | 17.78° C | 34% | 1023 hPa | - | - | - | - |
| 1777713518 | 17.22° C | 39% | 1023 hPa | - | - | - | - |
| 1777712618 | 17.22° C | 39% | 1023 hPa | - | - | - | - |
| 1777711726 | 17.22° C | 39% | 1023 hPa | - | - | - | - |
| 1777710819 | 17.22° C | 39% | 1023 hPa | - | - | - | - |
| 1777709918 | 16.11° C | 42% | 1023 hPa | - | - | - | - |
| 1777709018 | 16.11° C | 42% | 1023 hPa | - | - | - | - |
| 1777708118 | 15° C | 45% | 1024 hPa | - | - | - | - |
| 1777707218 | 15° C | 45% | 1024 hPa | - | - | - | - |
| 1777706319 | 13.89° C | 44% | 1024 hPa | - | - | - | - |
| 1777705420 | 13.89° C | 44% | 1024 hPa | - | - | - | - |
| 1777704519 | 12.78° C | 44% | 1024 hPa | - | - | - | - |
| 1777703618 | 12.78° C | 44% | 1024 hPa | - | - | - | - |
| 1777702719 | 11.11° C | 54% | 1024 hPa | - | - | - | - |
| 1777701819 | 11.11° C | 54% | 1024 hPa | - | - | - | - |
* Rain since midnight (hover to see other rain measurements)
** Current wind speed in m/s (hover to see current wind gust speed)